KDUG

Bisbee Douglas International Airport

Douglas Bisbee, Arizona, USA
METAR KDUG 150319Z AUTO 05003KT 10SM CLR 23/19 A3003 RMK AO2 LTG DSNT ALQDS PRESRR T02280189
Observed Flight Rules
Aug-15 @ 03:19 UTC (18 minutes ago) Visual Flight Rules
Wind Visibility Clouds
50° at 3 knots 10 miles
  • Clear skies
Temperatures Readings
Current 23°C / 73°F
Dewpoint 19°C / 66°F
Humidity 78%
Altimeter 30.03" Hg
Pressure 1017 hPa
Elevation 1265
METAR KDUG 150319Z AUTO 05003KT 10SM CLR 23/19 A3003 RMK AO2 LTG DSNT ALQDS PRESRR T02280189
Observed Flight Rules
Aug-15 @ 03:19 UTC
(18 minutes ago)
VFR
Wind Visibility
50° at 3 knots 10 miles
Clouds
  • Clear skies
Temperature Dewpoint
23°C / 73°F 19°C / 66°F
Humidity Altimeter Pressure
78% 30.03" Hg 1017 hPa